Time;durP1;ratioP1;P1;durP2;ratioP2;P2;SDS_P1;SDS_P2;PMS_P1;PMS_P2;Temp;Humidity;BMP_temperature;BMP_pressure;BME280_temperature;BME280_humidity;BME280_pressure;Samples;Min_cycle;Max_cycle;Signal;HPM_P1;HPM_P2
2023/10/30 00:01:05;;;;;;;23.70;19.85;;;13.10;99.90;;;;;;4954218;28;20404;-70
2023/10/30 00:03:31;;;;;;;23.42;20.25;;;13.10;99.90;;;;;;4960615;28;20042;-70
2023/10/30 00:05:58;;;;;;;28.95;23.45;;;13.20;99.90;;;;;;4973747;28;20391;-70
2023/10/30 00:08:24;;;;;;;27.60;24.25;;;13.20;99.90;;;;;;4973756;28;20043;-70
2023/10/30 00:10:50;;;;;;;25.70;23.27;;;13.20;99.90;;;;;;4967107;28;20035;-70
2023/10/30 00:13:17;;;;;;;31.20;26.40;;;13.20;99.90;;;;;;4959177;28;20445;-71
2023/10/30 00:15:43;;;;;;;34.72;30.52;;;13.20;99.90;;;;;;4967257;28;20035;-70
2023/10/30 00:18:09;;;;;;;31.25;27.27;;;13.20;99.90;;;;;;4970304;28;20051;-70
2023/10/30 00:20:37;;;;;;;30.00;26.85;;;13.10;99.90;;;;;;4970642;28;20038;-71
2023/10/30 00:23:03;;;;;;;29.42;26.42;;;13.10;99.90;;;;;;4972329;28;20519;-70
2023/10/30 00:25:29;;;;;;;35.20;31.75;;;13.10;99.90;;;;;;4970868;28;20038;-70
2023/10/30 00:27:59;;;;;;;26.92;24.17;;;13.20;99.90;;;;;;4954150;29;20050;-71
2023/10/30 00:30:26;;;;;;;29.90;25.10;;;13.20;99.90;;;;;;4952113;28;20474;-71
2023/10/30 00:32:52;;;;;;;28.92;26.02;;;13.10;99.90;;;;;;4961919;28;20035;-70
2023/10/30 00:35:19;;;;;;;28.30;24.40;;;13.10;99.90;;;;;;4953801;28;20449;-71
2023/10/30 00:37:45;;;;;;;32.70;29.25;;;13.10;99.90;;;;;;4954170;29;20095;-71
2023/10/30 00:40:11;;;;;;;29.95;27.10;;;13.20;99.90;;;;;;4952561;28;20031;-70
2023/10/30 00:42:37;;;;;;;36.80;33.30;;;13.20;99.90;;;;;;4953666;28;20388;-71
2023/10/30 00:45:05;;;;;;;29.52;26.77;;;13.30;99.90;;;;;;4952412;28;20031;-71
2023/10/30 00:47:31;;;;;;;24.40;21.70;;;13.40;99.90;;;;;;4952862;28;20399;-71
2023/10/30 00:49:58;;;;;;;25.55;20.38;;;13.30;99.90;;;;;;4954089;28;20527;-71
2023/10/30 00:52:24;;;;;;;24.33;22.35;;;13.30;99.90;;;;;;4971464;28;20031;-70
2023/10/30 00:54:50;;;;;;;26.23;23.45;;;13.30;99.90;;;;;;4972108;28;20070;-70
2023/10/30 00:57:16;;;;;;;26.95;22.77;;;13.40;99.90;;;;;;4955808;28;20476;-71
2023/10/30 00:59:42;;;;;;;28.65;23.85;;;13.40;99.90;;;;;;4969879;28;20054;-71
2023/10/30 01:02:08;;;;;;;26.77;23.90;;;13.50;99.90;;;;;;4972203;28;20042;-71
2023/10/30 01:04:34;;;;;;;28.83;25.65;;;13.40;99.90;;;;;;4975108;28;20038;-71
2023/10/30 01:07:02;;;;;;;28.83;25.98;;;13.50;99.90;;;;;;4962303;28;20094;-70
2023/10/30 01:09:28;;;;;;;28.08;25.17;;;13.40;99.90;;;;;;4957636;28;20043;-70
2023/10/30 01:11:54;;;;;;;30.70;27.58;;;13.40;99.90;;;;;;4969811;28;20427;-71
2023/10/30 01:14:20;;;;;;;28.35;23.63;;;13.40;99.90;;;;;;4959754;28;20047;-70
2023/10/30 01:16:49;;;;;;;27.27;24.48;;;13.40;99.90;;;;;;4963274;28;20050;-71
2023/10/30 01:19:15;;;;;;;29.90;24.88;;;13.40;99.90;;;;;;4971038;28;20054;-71
2023/10/30 01:21:42;;;;;;;26.67;24.30;;;13.50;99.90;;;;;;4974173;28;20469;-71
2023/10/30 01:24:08;;;;;;;31.77;27.25;;;13.50;99.90;;;;;;4976956;28;20049;-71
2023/10/30 01:26:34;;;;;;;27.20;24.55;;;13.50;99.90;;;;;;4953308;28;20047;-71
2023/10/30 01:29:01;;;;;;;28.92;26.45;;;13.60;99.90;;;;;;4976535;28;20047;-71
2023/10/30 01:31:27;;;;;;;27.45;24.55;;;13.60;99.90;;;;;;4975957;28;20042;-71
2023/10/30 01:33:54;;;;;;;28.38;22.67;;;13.60;99.90;;;;;;4975465;28;20071;-71
2023/10/30 01:36:20;;;;;;;24.70;22.05;;;13.60;99.90;;;;;;4967566;28;20030;-70
2023/10/30 01:38:46;;;;;;;30.60;22.60;;;13.70;99.90;;;;;;4967462;28;20035;-71
2023/10/30 01:41:12;;;;;;;27.15;24.27;;;13.60;99.90;;;;;;4955463;28;20042;-71
2023/10/30 01:43:38;;;;;;;25.80;23.48;;;13.60;99.90;;;;;;4941076;28;20046;-71
2023/10/30 01:46:05;;;;;;;27.85;25.20;;;13.70;99.90;;;;;;4967774;28;20046;-71
2023/10/30 01:48:33;;;;;;;31.77;28.85;;;13.70;99.90;;;;;;4970340;28;20038;-71
2023/10/30 01:51:00;;;;;;;24.85;22.73;;;13.70;99.90;;;;;;4974920;28;20030;-71
2023/10/30 01:53:27;;;;;;;27.70;24.85;;;13.70;99.90;;;;;;4974807;28;20038;-70
2023/10/30 01:55:54;;;;;;;31.67;28.80;;;13.70;99.90;;;;;;4968292;28;20457;-71
2023/10/30 01:58:20;;;;;;;32.22;29.08;;;13.70;99.90;;;;;;4955662;29;20035;-70
2023/10/30 02:00:46;;;;;;;31.60;27.98;;;13.60;99.90;;;;;;4955042;28;20039;-71
2023/10/30 02:03:12;;;;;;;38.95;35.22;;;13.60;99.90;;;;;;4955512;29;20487;-71
2023/10/30 02:05:38;;;;;;;32.83;29.67;;;13.60;99.90;;;;;;4961278;28;20037;-71
2023/10/30 02:08:05;;;;;;;30.83;27.98;;;13.50;99.90;;;;;;4964786;28;20042;-71
2023/10/30 02:10:31;;;;;;;31.13;28.05;;;13.60;99.90;;;;;;4963833;28;20035;-71
2023/10/30 02:12:57;;;;;;;30.92;27.63;;;13.60;99.90;;;;;;4923478;29;20039;-71
2023/10/30 02:15:23;;;;;;;28.42;25.45;;;13.50;99.90;;;;;;4965195;28;20034;-71
2023/10/30 02:17:49;;;;;;;29.92;22.42;;;13.50;99.90;;;;;;4975794;28;20058;-70
2023/10/30 02:20:15;;;;;;;30.08;24.38;;;13.50;99.90;;;;;;4989583;28;20055;-71
2023/10/30 02:22:41;;;;;;;26.38;24.10;;;13.50;99.90;;;;;;4975481;28;20034;-71
2023/10/30 02:25:07;;;;;;;29.05;26.17;;;13.50;99.90;;;;;;4975411;28;20031;-70
2023/10/30 02:27:34;;;;;;;26.63;23.90;;;13.50;99.90;;;;;;4955217;28;20031;-71
2023/10/30 02:30:00;;;;;;;25.30;22.73;;;13.50;99.90;;;;;;4956311;29;20047;-71
2023/10/30 02:32:26;;;;;;;26.42;23.63;;;13.40;99.90;;;;;;4955402;28;20066;-70
2023/10/30 02:34:52;;;;;;;28.65;22.15;;;13.30;99.90;;;;;;4955500;28;20040;-71
2023/10/30 02:37:18;;;;;;;24.73;22.15;;;13.40;99.90;;;;;;4956554;28;20389;-70
2023/10/30 02:39:44;;;;;;;26.50;23.05;;;13.30;99.90;;;;;;4955012;29;20032;-71
2023/10/30 02:42:10;;;;;;;27.33;24.65;;;13.30;99.90;;;;;;4960661;28;20058;-70
2023/10/30 02:44:36;;;;;;;24.85;22.30;;;13.40;99.90;;;;;;4975391;28;20035;-71
2023/10/30 02:47:03;;;;;;;25.45;22.88;;;13.50;99.90;;;;;;4972190;28;20038;-70
2023/10/30 02:49:29;;;;;;;25.10;22.85;;;13.40;99.90;;;;;;4974067;28;20065;-71
2023/10/30 02:51:55;;;;;;;30.67;28.20;;;13.50;99.90;;;;;;4959273;28;20043;-71
2023/10/30 02:54:21;;;;;;;23.60;21.05;;;13.50;99.90;;;;;;4954734;29;20401;-71
2023/10/30 02:56:47;;;;;;;22.33;19.92;;;13.40;99.90;;;;;;4957612;28;20031;-71
2023/10/30 02:59:13;;;;;;;25.63;23.17;;;13.30;99.90;;;;;;4955687;29;20593;-71
2023/10/30 03:01:40;;;;;;;26.25;23.77;;;13.30;99.90;;;;;;4954993;28;20036;-70
2023/10/30 03:04:06;;;;;;;24.42;22.10;;;13.40;99.90;;;;;;4956588;28;20043;-70
2023/10/30 03:06:32;;;;;;;22.95;21.30;;;13.40;99.90;;;;;;4956449;28;20054;-71
2023/10/30 03:08:59;;;;;;;23.48;21.42;;;13.40;99.90;;;;;;4954708;28;20132;-70
2023/10/30 03:11:25;;;;;;;23.42;21.25;;;13.50;99.90;;;;;;4954404;28;20035;-70
2023/10/30 03:13:51;;;;;;;23.00;20.63;;;13.50;99.90;;;;;;4954520;28;20047;-70
2023/10/30 03:16:17;;;;;;;21.30;19.33;;;13.50;99.90;;;;;;4971181;28;20063;-70
2023/10/30 03:18:43;;;;;;;21.25;19.30;;;13.50;99.90;;;;;;4972210;28;20057;-71
2023/10/30 03:21:10;;;;;;;21.90;20.42;;;13.50;99.90;;;;;;4964267;28;20035;-71
2023/10/30 03:23:36;;;;;;;20.83;18.10;;;13.50;99.90;;;;;;4955413;29;20037;-70
2023/10/30 03:26:02;;;;;;;22.90;20.95;;;13.50;99.90;;;;;;4953548;28;20388;-70
2023/10/30 03:28:28;;;;;;;24.88;23.20;;;13.50;99.90;;;;;;4982720;28;20042;-70
2023/10/30 03:30:54;;;;;;;23.58;21.83;;;13.60;99.90;;;;;;4959238;28;20404;-70
2023/10/30 03:33:20;;;;;;;26.83;25.20;;;13.60;99.90;;;;;;4973328;28;20030;-71
2023/10/30 03:35:46;;;;;;;26.83;25.10;;;13.60;99.90;;;;;;4972302;28;20043;-70
2023/10/30 03:38:15;;;;;;;25.42;23.83;;;13.60;99.90;;;;;;4973156;28;20031;-71
2023/10/30 03:40:42;;;;;;;23.92;22.23;;;13.70;99.90;;;;;;4968917;28;20023;-70
2023/10/30 03:43:08;;;;;;;25.55;24.05;;;13.70;99.90;;;;;;4967469;28;20034;-71
2023/10/30 03:45:34;;;;;;;26.05;24.23;;;13.70;99.90;;;;;;4972262;28;20403;-70
2023/10/30 03:48:00;;;;;;;28.10;26.33;;;13.70;99.90;;;;;;4974285;28;20045;-71
2023/10/30 03:50:26;;;;;;;27.75;25.75;;;13.70;99.90;;;;;;4971490;28;20388;-71
2023/10/30 03:52:52;;;;;;;29.23;27.02;;;13.70;99.90;;;;;;4954922;29;20034;-70
2023/10/30 03:55:18;;;;;;;28.98;27.50;;;13.80;99.90;;;;;;4955590;28;20043;-71
2023/10/30 03:57:45;;;;;;;29.73;28.08;;;13.70;99.90;;;;;;4958443;28;20053;-70
2023/10/30 04:00:12;;;;;;;29.13;27.45;;;13.60;99.90;;;;;;4973834;28;20050;-70
2023/10/30 04:02:39;;;;;;;28.33;26.55;;;13.50;99.90;;;;;;4961146;28;20041;-71
2023/10/30 04:05:06;;;;;;;28.77;27.08;;;13.50;99.90;;;;;;4972162;28;20035;-70
2023/10/30 04:07:32;;;;;;;26.23;24.52;;;13.60;99.90;;;;;;4954625;28;20086;-70
2023/10/30 04:09:58;;;;;;;27.73;25.73;;;13.70;99.90;;;;;;4955396;28;20400;-70
2023/10/30 04:12:24;;;;;;;27.95;26.38;;;13.70;99.90;;;;;;4957378;28;20027;-70
2023/10/30 04:14:51;;;;;;;28.08;26.40;;;13.70;99.90;;;;;;4973443;28;20372;-70
2023/10/30 04:17:17;;;;;;;28.02;26.60;;;13.60;99.90;;;;;;4955845;28;20527;-70
2023/10/30 04:19:43;;;;;;;29.15;27.45;;;13.70;99.90;;;;;;4952792;29;20038;-70
2023/10/30 04:22:09;;;;;;;26.75;24.85;;;13.70;99.90;;;;;;4954834;28;20519;-71
2023/10/30 04:24:35;;;;;;;26.98;25.38;;;13.70;99.90;;;;;;4972176;28;20039;-71
2023/10/30 04:27:01;;;;;;;27.58;25.65;;;13.70;99.90;;;;;;4958431;28;20388;-71
2023/10/30 04:29:28;;;;;;;29.95;28.27;;;13.60;99.90;;;;;;4954176;29;20050;-71
2023/10/30 04:31:54;;;;;;;25.55;24.02;;;13.60;99.90;;;;;;4953413;28;20050;-71
2023/10/30 04:34:20;;;;;;;25.17;23.45;;;13.60;99.90;;;;;;4952656;28;20043;-70
2023/10/30 04:36:46;;;;;;;25.73;24.13;;;13.50;99.90;;;;;;4964879;28;20035;-71
2023/10/30 04:39:13;;;;;;;26.42;24.50;;;13.60;99.90;;;;;;4971290;28;20031;-71
2023/10/30 04:41:40;;;;;;;26.02;24.42;;;13.60;99.90;;;;;;4968962;28;20051;-71
2023/10/30 04:44:06;;;;;;;28.65;26.75;;;13.50;99.90;;;;;;4952954;29;20046;-71
2023/10/30 04:46:32;;;;;;;25.27;23.45;;;13.30;99.90;;;;;;4949707;28;20069;-71
2023/10/30 04:48:58;;;;;;;25.45;23.88;;;13.30;99.90;;;;;;4934494;29;20034;-70
2023/10/30 04:51:25;;;;;;;25.52;24.17;;;13.40;99.90;;;;;;4950975;28;20489;-71
2023/10/30 04:53:54;;;;;;;26.35;24.67;;;13.50;99.90;;;;;;4968680;28;20038;-70
2023/10/30 04:56:20;;;;;;;25.02;23.73;;;13.60;99.90;;;;;;4944314;29;20374;-71
2023/10/30 04:58:46;;;;;;;24.92;23.30;;;13.60;99.90;;;;;;4948341;29;20050;-71
2023/10/30 05:01:13;;;;;;;26.45;24.40;;;13.60;99.90;;;;;;4954060;28;20054;-71
2023/10/30 05:03:39;;;;;;;23.13;21.80;;;13.60;99.90;;;;;;4971697;28;20380;-70
2023/10/30 05:06:05;;;;;;;23.55;22.05;;;13.60;99.90;;;;;;4972755;28;20046;-71
2023/10/30 05:08:35;;;;;;;24.17;22.42;;;13.60;99.90;;;;;;4967326;28;20035;-71
2023/10/30 05:11:01;;;;;;;26.48;24.88;;;13.60;99.90;;;;;;4952412;28;20373;-70
2023/10/30 05:13:27;;;;;;;27.65;25.77;;;13.60;99.90;;;;;;4954576;28;20027;-71
2023/10/30 05:15:56;;;;;;;28.10;26.58;;;13.60;99.90;;;;;;4961409;28;20057;-71
2023/10/30 05:18:24;;;;;;;26.52;24.88;;;13.50;99.90;;;;;;4972678;28;20031;-71
2023/10/30 05:20:51;;;;;;;28.38;26.67;;;13.50;99.90;;;;;;4968883;28;20019;-70
2023/10/30 05:23:17;;;;;;;28.75;27.10;;;13.50;99.90;;;;;;4971753;28;20049;-70
2023/10/30 05:25:43;;;;;;;27.52;25.88;;;13.60;99.90;;;;;;4968026;28;20492;-71
2023/10/30 05:28:09;;;;;;;27.63;26.02;;;13.60;99.90;;;;;;4953679;29;20047;-71
2023/10/30 05:30:36;;;;;;;28.20;26.67;;;13.60;99.90;;;;;;4964278;28;20412;-70
2023/10/30 05:33:02;;;;;;;27.67;25.90;;;13.60;99.90;;;;;;4972626;28;20483;-71
2023/10/30 05:35:28;;;;;;;28.95;27.20;;;13.50;99.90;;;;;;4969530;28;20114;-70
2023/10/30 05:37:54;;;;;;;27.95;26.40;;;13.50;99.90;;;;;;4971908;28;20395;-70
2023/10/30 05:40:23;;;;;;;26.33;24.77;;;13.50;99.90;;;;;;4971266;28;20039;-70
2023/10/30 05:42:49;;;;;;;27.65;26.00;;;13.60;99.90;;;;;;4965984;28;20023;-71
2023/10/30 05:45:16;;;;;;;27.65;26.10;;;13.50;99.90;;;;;;4970282;28;20031;-71
2023/10/30 05:47:42;;;;;;;32.55;30.50;;;13.50;99.90;;;;;;4953529;28;20030;-71
2023/10/30 05:50:09;;;;;;;29.60;27.83;;;13.20;99.90;;;;;;4966189;28;20531;-71
2023/10/30 05:52:35;;;;;;;25.25;23.38;;;13.10;99.90;;;;;;4960122;28;20050;-71
2023/10/30 05:55:02;;;;;;;35.53;33.47;;;13.10;99.90;;;;;;4956911;29;20388;-71
2023/10/30 05:57:28;;;;;;;23.45;22.23;;;12.80;99.90;;;;;;4967813;28;20472;-71
2023/10/30 05:59:54;;;;;;;24.15;22.77;;;12.70;99.90;;;;;;4975171;28;20042;-70
2023/10/30 06:02:20;;;;;;;25.45;23.92;;;12.60;99.90;;;;;;4958842;28;20028;-70
2023/10/30 06:04:47;;;;;;;34.28;32.30;;;12.50;99.90;;;;;;4959535;28;20491;-70
2023/10/30 06:07:13;;;;;;;31.98;29.80;;;12.50;99.90;;;;;;4961691;28;20032;-70
2023/10/30 06:09:39;;;;;;;29.48;27.88;;;12.50;99.90;;;;;;4958051;28;20054;-71
2023/10/30 06:12:06;;;;;;;27.42;25.75;;;12.50;99.90;;;;;;4960173;28;20027;-71
2023/10/30 06:14:32;;;;;;;29.02;27.45;;;12.40;99.90;;;;;;4959431;28;20027;-71
2023/10/30 06:17:01;;;;;;;23.27;21.98;;;12.30;99.90;;;;;;4960202;28;20078;-71
2023/10/30 06:19:28;;;;;;;19.30;17.90;;;12.10;99.90;;;;;;4956659;29;20028;-70
2023/10/30 06:21:54;;;;;;;19.98;18.67;;;12.10;99.90;;;;;;4959834;28;20019;-71
2023/10/30 06:24:20;;;;;;;31.30;29.10;;;12.10;99.90;;;;;;4961325;28;20062;-70
2023/10/30 06:26:46;;;;;;;29.92;28.40;;;12.00;99.90;;;;;;4963070;28;20027;-70
2023/10/30 06:29:12;;;;;;;22.42;20.90;;;12.00;99.90;;;;;;4974448;28;20061;-70
2023/10/30 06:31:38;;;;;;;24.17;22.90;;;12.00;99.90;;;;;;4974073;28;20047;-70
2023/10/30 06:34:04;;;;;;;24.83;23.23;;;12.00;99.90;;;;;;4975083;28;20057;-70
2023/10/30 06:36:31;;;;;;;31.05;29.20;;;12.00;99.90;;;;;;4974428;28;20417;-70
2023/10/30 06:38:57;;;;;;;23.05;21.75;;;12.00;99.90;;;;;;4975387;28;20050;-70
2023/10/30 06:41:23;;;;;;;24.23;22.63;;;11.90;99.90;;;;;;4976136;28;20487;-70
2023/10/30 06:43:51;;;;;;;25.20;23.88;;;11.90;99.90;;;;;;4962489;28;20046;-71
2023/10/30 06:46:17;;;;;;;20.83;19.38;;;11.90;99.90;;;;;;4974863;28;20447;-70
2023/10/30 06:48:43;;;;;;;18.25;17.05;;;12.00;99.90;;;;;;4975363;28;20046;-71
2023/10/30 06:51:10;;;;;;;18.15;16.88;;;12.10;99.90;;;;;;4975299;28;20042;-70
2023/10/30 06:53:36;;;;;;;16.85;15.95;;;12.20;99.90;;;;;;4973515;28;20353;-70
2023/10/30 06:56:02;;;;;;;48.13;18.25;;;12.30;99.90;;;;;;4969104;28;20050;-70
2023/10/30 06:58:28;;;;;;;16.90;15.73;;;12.40;99.90;;;;;;4974835;28;20049;-70
2023/10/30 07:01:03;;;;;;;18.60;17.33;;;12.40;99.90;;;;;;4968944;28;20046;-71
2023/10/30 07:03:30;;;;;;;17.60;16.48;;;12.40;99.90;;;;;;4966307;28;20424;-71
2023/10/30 07:05:56;;;;;;;18.77;17.50;;;12.50;99.90;;;;;;4973974;28;20050;-70
2023/10/30 07:08:22;;;;;;;18.70;17.60;;;12.60;99.90;;;;;;4975129;28;20041;-70
2023/10/30 07:10:48;;;;;;;35.08;33.25;;;12.60;99.90;;;;;;4974996;28;20042;-71
2023/10/30 07:13:14;;;;;;;26.98;25.55;;;12.50;99.90;;;;;;4974676;28;20045;-70
2023/10/30 07:15:41;;;;;;;36.45;34.55;;;12.30;99.90;;;;;;4974133;28;20047;-70
2023/10/30 07:18:07;;;;;;;27.35;25.85;;;12.20;99.90;;;;;;4975079;28;20046;-71
2023/10/30 07:20:33;;;;;;;26.45;24.92;;;12.10;99.90;;;;;;4974363;28;20027;-70
2023/10/30 07:22:59;;;;;;;24.40;22.90;;;12.10;99.90;;;;;;4974807;28;20041;-70
2023/10/30 07:25:25;;;;;;;27.80;26.38;;;12.10;99.90;;;;;;4973894;28;20042;-71
2023/10/30 07:27:51;;;;;;;19.58;18.40;;;12.30;99.90;;;;;;4974468;28;20039;-71
2023/10/30 07:30:17;;;;;;;20.27;19.23;;;12.50;99.90;;;;;;4974271;28;20038;-71
2023/10/30 07:32:44;;;;;;;24.30;22.55;;;12.60;99.90;;;;;;4974130;28;20045;-70
2023/10/30 07:35:10;;;;;;;23.15;21.70;;;12.70;99.90;;;;;;4974365;28;20047;-70
2023/10/30 07:37:36;;;;;;;240.68;29.23;;;12.70;99.90;;;;;;4988838;28;20050;-70
2023/10/30 07:40:03;;;;;;;18.20;17.20;;;12.80;99.90;;;;;;4975255;28;20515;-70
2023/10/30 07:42:29;;;;;;;22.48;21.23;;;12.90;99.90;;;;;;4958579;28;20035;-70
2023/10/30 07:44:55;;;;;;;21.58;20.38;;;13.00;99.90;;;;;;4955258;29;20434;-70
2023/10/30 07:47:21;;;;;;;22.17;20.73;;;13.00;99.90;;;;;;4971164;28;20046;-71
2023/10/30 07:49:47;;;;;;;23.63;22.20;;;13.00;99.90;;;;;;4989105;28;20043;-71
2023/10/30 07:52:14;;;;;;;25.00;23.52;;;13.10;99.90;;;;;;4957676;28;20050;-71
2023/10/30 07:54:40;;;;;;;25.08;23.58;;;13.10;99.90;;;;;;4961996;28;20042;-72
2023/10/30 07:57:08;;;;;;;26.13;24.83;;;13.10;99.90;;;;;;4967371;28;20389;-72
2023/10/30 07:59:35;;;;;;;27.60;25.98;;;13.10;99.90;;;;;;4953731;29;20027;-71
2023/10/30 08:02:03;;;;;;;26.50;25.08;;;13.10;99.90;;;;;;4955876;28;20062;-72
2023/10/30 08:04:29;;;;;;;26.40;24.85;;;13.10;99.90;;;;;;4955387;28;20031;-72
2023/10/30 08:06:55;;;;;;;23.17;21.73;;;12.90;99.90;;;;;;4959373;28;20032;-71
2023/10/30 08:09:21;;;;;;;22.75;21.48;;;12.90;99.90;;;;;;4974019;28;20364;-72
2023/10/30 08:11:47;;;;;;;24.48;22.80;;;13.00;99.90;;;;;;4970459;28;20050;-72
2023/10/30 08:14:13;;;;;;;24.88;23.42;;;13.10;99.90;;;;;;4970973;28;20027;-71
2023/10/30 08:16:40;;;;;;;23.58;22.20;;;13.10;99.90;;;;;;4960893;28;20444;-72
2023/10/30 08:19:06;;;;;;;26.17;24.58;;;13.10;99.90;;;;;;4960154;28;20023;-71
2023/10/30 08:21:32;;;;;;;23.77;22.35;;;13.20;99.90;;;;;;4965047;28;20427;-71
2023/10/30 08:23:58;;;;;;;24.67;23.17;;;13.20;99.90;;;;;;4969856;28;20043;-70
2023/10/30 08:26:25;;;;;;;30.23;28.48;;;13.10;99.90;;;;;;4956122;28;20032;-71
2023/10/30 08:28:52;;;;;;;27.50;26.10;;;13.10;99.90;;;;;;4970634;28;20026;-70
2023/10/30 08:31:18;;;;;;;25.98;24.38;;;13.20;99.90;;;;;;4972947;28;20046;-71
2023/10/30 08:33:44;;;;;;;274.13;49.20;;;13.20;99.90;;;;;;4988048;28;20416;-71
2023/10/30 08:36:10;;;;;;;24.35;23.10;;;13.30;99.90;;;;;;4973333;28;20034;-70
2023/10/30 08:38:38;;;;;;;24.30;22.92;;;13.30;99.90;;;;;;4973425;28;20407;-71
2023/10/30 08:41:04;;;;;;;25.77;24.35;;;13.30;99.90;;;;;;4971291;28;20057;-70
2023/10/30 08:43:30;;;;;;;25.70;24.15;;;13.30;99.90;;;;;;4971463;28;20583;-68
2023/10/30 08:45:56;;;;;;;25.88;24.40;;;13.30;99.90;;;;;;4966873;28;20043;-71
2023/10/30 08:48:23;;;;;;;24.27;22.95;;;13.30;99.90;;;;;;4966156;28;20042;-71
2023/10/30 08:50:49;;;;;;;23.55;22.23;;;13.30;99.90;;;;;;4965555;28;20043;-71
2023/10/30 08:53:15;;;;;;;25.38;23.83;;;13.40;99.90;;;;;;4960665;28;20035;-71
2023/10/30 08:55:41;;;;;;;32.13;30.08;;;13.30;99.90;;;;;;4968212;28;20058;-71
2023/10/30 08:58:07;;;;;;;30.67;29.02;;;13.30;99.90;;;;;;4968918;28;20038;-71
2023/10/30 09:00:34;;;;;;;31.65;29.98;;;13.30;99.90;;;;;;4968095;28;20054;-71
2023/10/30 09:03:00;;;;;;;28.77;27.15;;;13.30;99.90;;;;;;4960408;28;20019;-71
2023/10/30 09:05:26;;;;;;;32.33;30.58;;;13.20;99.90;;;;;;4972978;28;20499;-71
2023/10/30 09:07:52;;;;;;;33.03;31.20;;;13.30;99.90;;;;;;4973325;28;20038;-71
2023/10/30 09:10:18;;;;;;;38.28;35.22;;;13.30;99.90;;;;;;4969060;28;20472;-71
2023/10/30 09:12:45;;;;;;;35.28;33.28;;;13.30;99.90;;;;;;4972134;28;20042;-70
2023/10/30 09:15:13;;;;;;;37.72;35.72;;;13.40;99.90;;;;;;4972567;28;20051;-71
2023/10/30 09:17:39;;;;;;;35.30;33.50;;;13.40;99.90;;;;;;4973173;28;20062;-72
2023/10/30 09:20:06;;;;;;;36.25;34.05;;;13.40;99.90;;;;;;4973043;28;20038;-71
2023/10/30 09:22:33;;;;;;;35.92;33.97;;;13.40;99.90;;;;;;4953176;28;20036;-71
2023/10/30 09:24:59;;;;;;;33.05;31.17;;;13.30;99.90;;;;;;4955516;28;20027;-71
2023/10/30 09:27:25;;;;;;;41.67;39.40;;;12.90;99.90;;;;;;4957481;28;20028;-71
2023/10/30 09:29:51;;;;;;;32.90;31.20;;;12.60;99.90;;;;;;4957813;29;20043;-71
2023/10/30 09:32:18;;;;;;;39.17;37.08;;;12.50;99.90;;;;;;4957164;28;20050;-70
2023/10/30 09:34:44;;;;;;;30.55;27.42;;;12.50;99.90;;;;;;4957507;28;20019;-71
2023/10/30 09:37:11;;;;;;;21.60;20.40;;;12.50;99.90;;;;;;4965750;28;20045;-71
2023/10/30 09:39:37;;;;;;;19.65;18.50;;;12.60;99.90;;;;;;4957371;29;20038;-71
2023/10/30 09:42:03;;;;;;;24.77;23.08;;;12.50;99.90;;;;;;4961217;28;20030;-71
2023/10/30 09:44:30;;;;;;;24.63;23.23;;;12.50;99.90;;;;;;4975536;28;20365;-71
2023/10/30 09:46:56;;;;;;;38.00;35.92;;;12.60;99.90;;;;;;4974197;28;20047;-70
2023/10/30 09:49:23;;;;;;;37.33;35.38;;;12.60;99.90;;;;;;4965498;28;20452;-71
2023/10/30 09:51:50;;;;;;;22.80;21.45;;;12.60;99.90;;;;;;4964697;28;20050;-71
2023/10/30 09:54:17;;;;;;;37.95;35.90;;;12.50;99.90;;;;;;4953481;28;20047;-70
2023/10/30 09:56:44;;;;;;;48.20;45.80;;;12.50;99.90;;;;;;4968427;28;20034;-71
2023/10/30 09:59:12;;;;;;;23.40;22.20;;;12.60;99.90;;;;;;4958534;28;20039;-71
2023/10/30 10:01:40;;;;;;;36.63;34.83;;;12.60;99.90;;;;;;4956727;28;20641;-71
2023/10/30 10:04:06;;;;;;;57.78;54.42;;;12.50;99.90;;;;;;4965882;28;20049;-71
2023/10/30 10:06:32;;;;;;;40.38;38.28;;;12.50;99.90;;;;;;4975841;28;20042;-71
2023/10/30 10:08:58;;;;;;;32.45;30.83;;;12.60;99.90;;;;;;4972509;28;20034;-72
2023/10/30 10:11:30;;;;;;;50.03;47.53;;;12.50;99.90;;;;;;4972458;28;20039;-71
2023/10/30 10:13:57;;;;;;;29.00;27.38;;;12.50;99.90;;;;;;4965363;28;20035;-72
2023/10/30 10:16:30;;;;;;;23.83;22.52;;;12.50;99.90;;;;;;4971969;28;20053;-71
2023/10/30 10:18:56;;;;;;;30.80;29.30;;;12.50;99.90;;;;;;4985954;28;20034;-72
2023/10/30 10:21:22;;;;;;;23.88;22.65;;;12.60;99.90;;;;;;4973649;28;20042;-71
2023/10/30 10:23:48;;;;;;;29.25;27.65;;;12.50;99.90;;;;;;4974281;28;20031;-71
2023/10/30 10:26:15;;;;;;;43.83;41.30;;;12.60;99.90;;;;;;4967961;28;20047;-71
2023/10/30 10:28:42;;;;;;;53.70;51.03;;;12.70;99.90;;;;;;4975132;28;20107;-71
2023/10/30 10:31:09;;;;;;;36.88;35.08;;;12.70;99.90;;;;;;4969344;28;20047;-73
2023/10/30 10:33:36;;;;;;;20.55;19.55;;;12.70;99.90;;;;;;4956078;28;20043;-73
2023/10/30 10:36:03;;;;;;;25.92;24.58;;;12.70;99.90;;;;;;4970038;28;20043;-72
2023/10/30 10:38:30;;;;;;;31.77;30.13;;;12.60;99.90;;;;;;4955256;28;20027;-73
2023/10/30 10:40:56;;;;;;;29.98;28.52;;;12.70;99.90;;;;;;4963761;28;20023;-72
2023/10/30 10:43:24;;;;;;;41.80;39.75;;;12.90;99.90;;;;;;4969381;28;20031;-72
2023/10/30 10:45:51;;;;;;;42.17;40.17;;;13.00;99.90;;;;;;4962124;28;20404;-72
2023/10/30 10:48:18;;;;;;;45.40;43.13;;;13.10;99.90;;;;;;4955431;28;20044;-72
2023/10/30 10:50:44;;;;;;;37.10;34.95;;;13.20;99.90;;;;;;4970478;28;20405;-72
2023/10/30 10:53:11;;;;;;;38.58;36.67;;;13.30;99.90;;;;;;4970231;28;20050;-72
2023/10/30 10:55:44;;;;;;;40.67;38.60;;;13.30;99.90;;;;;;4965545;28;20424;-72
2023/10/30 10:58:28;;;;;;;55.70;52.38;;;13.40;99.90;;;;;;4954817;29;20027;-72
2023/10/30 11:00:54;;;;;;;46.70;44.25;;;13.50;99.90;;;;;;4955370;28;20042;-72
2023/10/30 11:03:24;;;;;;;64.38;61.08;;;13.50;99.90;;;;;;4954818;28;20051;-72
2023/10/30 11:05:51;;;;;;;70.65;67.00;;;13.50;99.90;;;;;;4954075;28;20465;-72
2023/10/30 11:08:41;;;;;;;94.20;87.43;;;13.50;99.90;;;;;;4970723;28;20027;-72
2023/10/30 11:11:22;;;;;;;52.28;49.67;;;13.70;99.90;;;;;;4964975;28;20047;-72
2023/10/30 11:14:09;;;;;;;58.45;55.58;;;13.70;99.90;;;;;;4963133;28;20031;-72
2023/10/30 11:16:47;;;;;;;56.10;53.10;;;13.80;99.90;;;;;;4970145;28;20039;-72
2023/10/30 11:19:13;;;;;;;35.85;34.00;;;13.80;99.90;;;;;;4969922;28;20500;-72
2023/10/30 11:21:39;;;;;;;46.00;43.67;;;13.80;99.90;;;;;;4965646;28;20038;-72
2023/10/30 11:24:06;;;;;;;53.55;50.75;;;13.80;99.90;;;;;;4957028;28;20031;-72
2023/10/30 11:26:39;;;;;;;59.53;56.58;;;13.80;99.90;;;;;;4963280;28;20046;-72
2023/10/30 11:29:15;;;;;;;46.80;44.50;;;13.90;99.90;;;;;;4969666;28;20034;-72
2023/10/30 11:32:03;;;;;;;56.42;53.65;;;14.00;99.90;;;;;;4972885;28;20058;-71
2023/10/30 11:34:37;;;;;;;28.27;26.83;;;14.10;99.90;;;;;;4955525;28;20392;-72
2023/10/30 11:37:14;;;;;;;32.70;31.05;;;14.10;99.90;;;;;;4971766;28;20031;-72
2023/10/30 11:39:41;;;;;;;42.40;40.30;;;14.20;99.90;;;;;;4968035;28;20262;-72
2023/10/30 11:42:29;;;;;;;57.53;54.65;;;14.20;99.90;;;;;;4967449;28;20035;-72
2023/10/30 11:45:35;;;;;;;46.55;44.15;;;14.40;99.90;;;;;;4981076;28;20033;-71
2023/10/30 11:48:05;;;;;;;52.85;50.15;;;14.40;99.90;;;;;;4972134;28;20134;-72
2023/10/30 11:50:33;;;;;;;36.25;34.35;;;14.50;99.90;;;;;;4970435;28;20039;-72
2023/10/30 11:53:07;;;;;;;60.17;57.28;;;14.50;99.90;;;;;;4966959;28;20039;-72
2023/10/30 11:55:34;;;;;;;43.45;41.35;;;14.50;99.90;;;;;;4953425;28;20384;-72
2023/10/30 11:58:01;;;;;;;56.65;53.75;;;14.50;99.90;;;;;;4954333;29;20035;-71
2023/10/30 12:00:27;;;;;;;45.75;43.15;;;14.50;99.90;;;;;;4952390;28;20465;-72
2023/10/30 12:02:54;;;;;;;52.53;49.95;;;14.50;99.90;;;;;;4955044;28;20036;-72
2023/10/30 12:05:20;;;;;;;61.13;58.03;;;14.50;99.90;;;;;;4937043;28;20038;-72
2023/10/30 12:07:48;;;;;;;52.05;49.22;;;14.50;99.90;;;;;;4954449;29;20492;-72
2023/10/30 12:10:14;;;;;;;61.28;58.22;;;14.50;99.90;;;;;;4952796;28;20031;-71
2023/10/30 12:12:41;;;;;;;55.20;52.20;;;14.50;99.90;;;;;;4937094;29;20047;-72
2023/10/30 12:15:07;;;;;;;60.53;57.40;;;14.50;99.90;;;;;;4952930;28;20031;-71
2023/10/30 12:17:33;;;;;;;60.88;57.58;;;14.50;99.90;;;;;;4952238;28;20051;-71
2023/10/30 12:19:59;;;;;;;55.97;52.92;;;14.50;99.90;;;;;;4954284;29;20461;-71
2023/10/30 12:22:25;;;;;;;59.70;56.67;;;14.40;99.90;;;;;;4953797;28;20046;-72
2023/10/30 12:24:51;;;;;;;62.60;59.42;;;14.40;99.90;;;;;;4954094;28;20039;-71